sensor_id;sensor_type;location;lat;lon;timestamp;P1;durP1;ratioP1;P2;durP2;ratioP2
21030;SDS011;61072;47.808;7.636;2023-01-08T00:01:51;3.72;;;2.10;;
21030;SDS011;61072;47.808;7.636;2023-01-08T00:04:18;3.95;;;1.85;;
21030;SDS011;61072;47.808;7.636;2023-01-08T00:06:45;2.75;;;1.95;;
21030;SDS011;61072;47.808;7.636;2023-01-08T00:09:11;3.08;;;2.00;;
21030;SDS011;61072;47.808;7.636;2023-01-08T00:11:38;4.20;;;2.50;;
21030;SDS011;61072;47.808;7.636;2023-01-08T00:14:05;3.22;;;2.17;;
21030;SDS011;61072;47.808;7.636;2023-01-08T00:16:32;4.28;;;2.50;;
21030;SDS011;61072;47.808;7.636;2023-01-08T00:18:59;4.70;;;2.60;;
21030;SDS011;61072;47.808;7.636;2023-01-08T00:21:25;3.85;;;2.53;;
21030;SDS011;61072;47.808;7.636;2023-01-08T00:23:52;4.32;;;2.50;;
21030;SDS011;61072;47.808;7.636;2023-01-08T00:26:19;3.30;;;1.92;;
21030;SDS011;61072;47.808;7.636;2023-01-08T00:28:46;4.20;;;2.35;;
21030;SDS011;61072;47.808;7.636;2023-01-08T00:31:12;3.30;;;2.05;;
21030;SDS011;61072;47.808;7.636;2023-01-08T00:33:39;5.78;;;2.30;;
21030;SDS011;61072;47.808;7.636;2023-01-08T00:36:07;3.60;;;2.28;;
21030;SDS011;61072;47.808;7.636;2023-01-08T00:38:39;2.60;;;2.00;;
21030;SDS011;61072;47.808;7.636;2023-01-08T00:41:06;2.60;;;2.08;;
21030;SDS011;61072;47.808;7.636;2023-01-08T00:43:33;4.13;;;2.83;;
21030;SDS011;61072;47.808;7.636;2023-01-08T00:45:59;4.07;;;2.45;;
21030;SDS011;61072;47.808;7.636;2023-01-08T00:48:26;5.82;;;2.58;;
21030;SDS011;61072;47.808;7.636;2023-01-08T00:50:53;4.93;;;2.88;;
21030;SDS011;61072;47.808;7.636;2023-01-08T00:53:20;5.07;;;2.80;;
21030;SDS011;61072;47.808;7.636;2023-01-08T00:55:48;4.93;;;2.70;;
21030;SDS011;61072;47.808;7.636;2023-01-08T00:58:15;4.05;;;2.53;;
21030;SDS011;61072;47.808;7.636;2023-01-08T01:00:42;5.05;;;2.58;;
21030;SDS011;61072;47.808;7.636;2023-01-08T01:03:08;4.35;;;2.58;;
21030;SDS011;61072;47.808;7.636;2023-01-08T01:05:35;3.08;;;1.95;;
21030;SDS011;61072;47.808;7.636;2023-01-08T01:08:01;3.63;;;2.10;;
21030;SDS011;61072;47.808;7.636;2023-01-08T01:10:28;2.88;;;2.10;;
21030;SDS011;61072;47.808;7.636;2023-01-08T01:12:55;5.35;;;2.33;;
21030;SDS011;61072;47.808;7.636;2023-01-08T01:15:22;3.90;;;2.25;;
21030;SDS011;61072;47.808;7.636;2023-01-08T01:17:48;3.33;;;2.30;;
21030;SDS011;61072;47.808;7.636;2023-01-08T01:20:15;2.88;;;1.80;;
21030;SDS011;61072;47.808;7.636;2023-01-08T01:22:42;3.42;;;2.25;;
21030;SDS011;61072;47.808;7.636;2023-01-08T01:25:09;3.05;;;2.15;;
21030;SDS011;61072;47.808;7.636;2023-01-08T01:27:36;2.92;;;1.88;;
21030;SDS011;61072;47.808;7.636;2023-01-08T01:30:03;3.15;;;2.10;;
21030;SDS011;61072;47.808;7.636;2023-01-08T01:32:30;2.90;;;1.92;;
21030;SDS011;61072;47.808;7.636;2023-01-08T01:34:57;4.80;;;2.15;;
21030;SDS011;61072;47.808;7.636;2023-01-08T01:37:24;2.65;;;1.75;;
21030;SDS011;61072;47.808;7.636;2023-01-08T01:39:50;2.50;;;1.60;;
21030;SDS011;61072;47.808;7.636;2023-01-08T01:42:18;2.50;;;1.88;;
21030;SDS011;61072;47.808;7.636;2023-01-08T01:45:20;2.90;;;1.65;;
21030;SDS011;61072;47.808;7.636;2023-01-08T01:48:01;2.50;;;1.70;;
21030;SDS011;61072;47.808;7.636;2023-01-08T01:50:36;3.45;;;1.48;;
21030;SDS011;61072;47.808;7.636;2023-01-08T01:53:17;2.67;;;1.77;;
21030;SDS011;61072;47.808;7.636;2023-01-08T01:55:49;2.33;;;1.58;;
21030;SDS011;61072;47.808;7.636;2023-01-08T01:58:18;2.25;;;1.50;;
21030;SDS011;61072;47.808;7.636;2023-01-08T02:00:49;3.55;;;2.10;;
21030;SDS011;61072;47.808;7.636;2023-01-08T02:03:22;2.42;;;1.50;;
21030;SDS011;61072;47.808;7.636;2023-01-08T02:05:53;4.68;;;1.80;;
21030;SDS011;61072;47.808;7.636;2023-01-08T02:13:50;3.88;;;1.92;;
21030;SDS011;61072;47.808;7.636;2023-01-08T02:16:27;4.53;;;2.15;;
21030;SDS011;61072;47.808;7.636;2023-01-08T02:19:51;1.92;;;1.08;;
21030;SDS011;61072;47.808;7.636;2023-01-08T02:22:35;2.92;;;1.92;;
21030;SDS011;61072;47.808;7.636;2023-01-08T02:25:28;3.25;;;1.60;;
21030;SDS011;61072;47.808;7.636;2023-01-08T02:27:56;3.17;;;1.83;;
21030;SDS011;61072;47.808;7.636;2023-01-08T02:30:26;2.05;;;1.52;;
21030;SDS011;61072;47.808;7.636;2023-01-08T02:32:54;2.63;;;1.40;;
21030;SDS011;61072;47.808;7.636;2023-01-08T02:35:20;2.38;;;1.30;;
21030;SDS011;61072;47.808;7.636;2023-01-08T02:37:47;2.55;;;1.42;;
21030;SDS011;61072;47.808;7.636;2023-01-08T02:40:18;1.23;;;1.13;;
21030;SDS011;61072;47.808;7.636;2023-01-08T02:42:58;2.53;;;1.42;;
21030;SDS011;61072;47.808;7.636;2023-01-08T02:51:11;3.53;;;1.50;;
21030;SDS011;61072;47.808;7.636;2023-01-08T02:56:18;1.70;;;1.30;;
21030;SDS011;61072;47.808;7.636;2023-01-08T02:58:48;2.20;;;1.23;;
21030;SDS011;61072;47.808;7.636;2023-01-08T03:01:17;1.67;;;1.25;;
21030;SDS011;61072;47.808;7.636;2023-01-08T03:03:55;2.65;;;1.40;;
21030;SDS011;61072;47.808;7.636;2023-01-08T03:06:24;1.52;;;1.00;;
21030;SDS011;61072;47.808;7.636;2023-01-08T03:08:51;2.00;;;1.15;;
21030;SDS011;61072;47.808;7.636;2023-01-08T03:11:20;3.00;;;1.40;;
21030;SDS011;61072;47.808;7.636;2023-01-08T03:14:02;3.88;;;1.70;;
21030;SDS011;61072;47.808;7.636;2023-01-08T03:19:22;2.88;;;1.30;;
21030;SDS011;61072;47.808;7.636;2023-01-08T03:21:51;2.72;;;1.80;;
21030;SDS011;61072;47.808;7.636;2023-01-08T03:24:20;1.77;;;1.20;;
21030;SDS011;61072;47.808;7.636;2023-01-08T03:26:51;2.45;;;1.55;;
21030;SDS011;61072;47.808;7.636;2023-01-08T03:29:21;4.75;;;1.60;;
21030;SDS011;61072;47.808;7.636;2023-01-08T03:31:49;1.98;;;1.20;;
21030;SDS011;61072;47.808;7.636;2023-01-08T03:34:19;1.85;;;1.40;;
21030;SDS011;61072;47.808;7.636;2023-01-08T03:36:49;3.95;;;1.52;;
21030;SDS011;61072;47.808;7.636;2023-01-08T03:39:24;4.15;;;1.45;;
21030;SDS011;61072;47.808;7.636;2023-01-08T03:41:55;2.90;;;2.00;;
21030;SDS011;61072;47.808;7.636;2023-01-08T03:44:26;3.88;;;1.42;;
21030;SDS011;61072;47.808;7.636;2023-01-08T03:46:53;2.38;;;1.60;;
21030;SDS011;61072;47.808;7.636;2023-01-08T03:49:22;1.67;;;1.40;;
21030;SDS011;61072;47.808;7.636;2023-01-08T03:51:51;3.03;;;1.47;;
21030;SDS011;61072;47.808;7.636;2023-01-08T03:54:19;2.53;;;1.58;;
21030;SDS011;61072;47.808;7.636;2023-01-08T03:56:48;1.98;;;1.50;;
21030;SDS011;61072;47.808;7.636;2023-01-08T03:59:15;2.30;;;1.67;;
21030;SDS011;61072;47.808;7.636;2023-01-08T04:01:42;3.00;;;1.80;;
21030;SDS011;61072;47.808;7.636;2023-01-08T04:04:09;1.73;;;1.60;;
21030;SDS011;61072;47.808;7.636;2023-01-08T04:06:37;2.50;;;1.80;;
21030;SDS011;61072;47.808;7.636;2023-01-08T04:09:03;3.75;;;1.70;;
21030;SDS011;61072;47.808;7.636;2023-01-08T04:11:30;2.58;;;1.50;;
21030;SDS011;61072;47.808;7.636;2023-01-08T04:13:57;3.15;;;1.60;;
21030;SDS011;61072;47.808;7.636;2023-01-08T04:16:23;5.20;;;1.73;;
21030;SDS011;61072;47.808;7.636;2023-01-08T04:18:50;3.03;;;1.70;;
21030;SDS011;61072;47.808;7.636;2023-01-08T04:21:17;4.18;;;2.30;;
21030;SDS011;61072;47.808;7.636;2023-01-08T04:23:43;3.25;;;2.30;;
21030;SDS011;61072;47.808;7.636;2023-01-08T04:26:10;3.00;;;1.98;;
21030;SDS011;61072;47.808;7.636;2023-01-08T04:28:37;4.03;;;2.17;;
21030;SDS011;61072;47.808;7.636;2023-01-08T04:31:05;4.47;;;2.53;;
21030;SDS011;61072;47.808;7.636;2023-01-08T04:33:32;5.13;;;2.00;;
21030;SDS011;61072;47.808;7.636;2023-01-08T04:35:59;2.10;;;1.58;;
21030;SDS011;61072;47.808;7.636;2023-01-08T04:38:26;2.25;;;1.35;;
21030;SDS011;61072;47.808;7.636;2023-01-08T04:40:56;2.92;;;1.80;;
21030;SDS011;61072;47.808;7.636;2023-01-08T04:43:26;5.72;;;2.03;;
21030;SDS011;61072;47.808;7.636;2023-01-08T04:45:57;5.05;;;1.60;;
21030;SDS011;61072;47.808;7.636;2023-01-08T04:48:25;4.82;;;2.00;;
21030;SDS011;61072;47.808;7.636;2023-01-08T04:50:52;4.07;;;1.63;;
21030;SDS011;61072;47.808;7.636;2023-01-08T04:53:19;2.63;;;1.75;;
21030;SDS011;61072;47.808;7.636;2023-01-08T04:55:45;2.85;;;1.67;;
21030;SDS011;61072;47.808;7.636;2023-01-08T04:58:12;1.58;;;1.48;;
21030;SDS011;61072;47.808;7.636;2023-01-08T05:00:39;3.17;;;1.30;;
21030;SDS011;61072;47.808;7.636;2023-01-08T05:03:06;2.53;;;1.20;;
21030;SDS011;61072;47.808;7.636;2023-01-08T05:05:33;4.50;;;1.40;;
21030;SDS011;61072;47.808;7.636;2023-01-08T05:08:00;3.97;;;1.33;;
21030;SDS011;61072;47.808;7.636;2023-01-08T05:10:26;3.35;;;1.35;;
21030;SDS011;61072;47.808;7.636;2023-01-08T05:12:57;4.57;;;1.23;;
21030;SDS011;61072;47.808;7.636;2023-01-08T05:15:24;2.38;;;1.20;;
21030;SDS011;61072;47.808;7.636;2023-01-08T05:17:58;2.22;;;1.17;;
21030;SDS011;61072;47.808;7.636;2023-01-08T05:20:26;1.20;;;1.10;;
21030;SDS011;61072;47.808;7.636;2023-01-08T05:22:53;1.95;;;1.08;;
21030;SDS011;61072;47.808;7.636;2023-01-08T05:25:20;1.15;;;1.00;;
21030;SDS011;61072;47.808;7.636;2023-01-08T05:27:46;1.67;;;1.40;;
21030;SDS011;61072;47.808;7.636;2023-01-08T05:30:13;3.00;;;1.23;;
21030;SDS011;61072;47.808;7.636;2023-01-08T05:32:40;1.10;;;1.00;;
21030;SDS011;61072;47.808;7.636;2023-01-08T05:35:07;4.32;;;1.42;;
21030;SDS011;61072;47.808;7.636;2023-01-08T05:37:34;1.23;;;0.85;;
21030;SDS011;61072;47.808;7.636;2023-01-08T05:40:02;1.00;;;0.80;;
21030;SDS011;61072;47.808;7.636;2023-01-08T05:42:29;1.40;;;0.93;;
21030;SDS011;61072;47.808;7.636;2023-01-08T05:44:56;2.88;;;1.05;;
21030;SDS011;61072;47.808;7.636;2023-01-08T05:47:22;1.75;;;1.10;;
21030;SDS011;61072;47.808;7.636;2023-01-08T05:49:49;1.25;;;0.85;;
21030;SDS011;61072;47.808;7.636;2023-01-08T05:52:15;1.70;;;0.77;;
21030;SDS011;61072;47.808;7.636;2023-01-08T05:54:42;1.58;;;0.90;;
21030;SDS011;61072;47.808;7.636;2023-01-08T05:57:09;1.75;;;0.70;;
21030;SDS011;61072;47.808;7.636;2023-01-08T05:59:35;3.83;;;0.93;;
21030;SDS011;61072;47.808;7.636;2023-01-08T06:02:02;1.75;;;0.80;;
21030;SDS011;61072;47.808;7.636;2023-01-08T06:04:29;1.17;;;0.80;;
21030;SDS011;61072;47.808;7.636;2023-01-08T06:06:56;1.00;;;0.60;;
21030;SDS011;61072;47.808;7.636;2023-01-08T06:09:22;1.27;;;0.80;;
21030;SDS011;61072;47.808;7.636;2023-01-08T06:11:49;2.85;;;0.90;;
21030;SDS011;61072;47.808;7.636;2023-01-08T06:14:15;2.35;;;1.30;;
21030;SDS011;61072;47.808;7.636;2023-01-08T06:16:42;1.10;;;1.00;;
21030;SDS011;61072;47.808;7.636;2023-01-08T06:19:09;3.03;;;0.88;;
21030;SDS011;61072;47.808;7.636;2023-01-08T06:21:36;1.25;;;1.00;;
21030;SDS011;61072;47.808;7.636;2023-01-08T06:24:03;0.90;;;0.80;;
21030;SDS011;61072;47.808;7.636;2023-01-08T06:26:30;1.90;;;0.85;;
21030;SDS011;61072;47.808;7.636;2023-01-08T06:28:57;2.17;;;0.80;;
21030;SDS011;61072;47.808;7.636;2023-01-08T06:31:23;0.80;;;0.60;;
21030;SDS011;61072;47.808;7.636;2023-01-08T06:33:50;2.15;;;1.00;;
21030;SDS011;61072;47.808;7.636;2023-01-08T06:36:17;2.50;;;0.98;;
21030;SDS011;61072;47.808;7.636;2023-01-08T06:38:43;1.15;;;0.80;;
21030;SDS011;61072;47.808;7.636;2023-01-08T06:41:10;0.82;;;0.73;;
21030;SDS011;61072;47.808;7.636;2023-01-08T06:43:37;4.00;;;0.90;;
21030;SDS011;61072;47.808;7.636;2023-01-08T06:46:05;1.73;;;0.75;;
21030;SDS011;61072;47.808;7.636;2023-01-08T06:48:33;1.58;;;0.60;;
21030;SDS011;61072;47.808;7.636;2023-01-08T06:51:00;1.10;;;0.80;;
21030;SDS011;61072;47.808;7.636;2023-01-08T06:53:27;1.38;;;0.60;;
21030;SDS011;61072;47.808;7.636;2023-01-08T06:55:55;2.08;;;0.75;;
21030;SDS011;61072;47.808;7.636;2023-01-08T06:58:24;0.75;;;0.70;;
21030;SDS011;61072;47.808;7.636;2023-01-08T07:00:51;2.25;;;0.73;;
21030;SDS011;61072;47.808;7.636;2023-01-08T07:03:18;0.77;;;0.77;;
21030;SDS011;61072;47.808;7.636;2023-01-08T07:05:45;0.77;;;0.70;;
21030;SDS011;61072;47.808;7.636;2023-01-08T07:08:12;1.25;;;0.80;;
21030;SDS011;61072;47.808;7.636;2023-01-08T07:10:40;2.80;;;0.90;;
21030;SDS011;61072;47.808;7.636;2023-01-08T07:13:08;3.63;;;0.80;;
21030;SDS011;61072;47.808;7.636;2023-01-08T07:15:35;0.47;;;0.47;;
21030;SDS011;61072;47.808;7.636;2023-01-08T07:18:03;0.55;;;0.52;;
21030;SDS011;61072;47.808;7.636;2023-01-08T07:20:31;1.35;;;0.70;;
21030;SDS011;61072;47.808;7.636;2023-01-08T07:23:06;1.08;;;0.60;;
21030;SDS011;61072;47.808;7.636;2023-01-08T07:25:35;0.85;;;0.70;;
21030;SDS011;61072;47.808;7.636;2023-01-08T07:28:02;1.02;;;0.70;;
21030;SDS011;61072;47.808;7.636;2023-01-08T07:30:29;1.00;;;0.65;;
21030;SDS011;61072;47.808;7.636;2023-01-08T07:32:59;0.95;;;0.80;;
21030;SDS011;61072;47.808;7.636;2023-01-08T07:35:27;1.17;;;0.70;;
21030;SDS011;61072;47.808;7.636;2023-01-08T07:37:54;0.90;;;0.70;;
21030;SDS011;61072;47.808;7.636;2023-01-08T07:40:21;1.15;;;0.60;;
21030;SDS011;61072;47.808;7.636;2023-01-08T07:42:55;1.08;;;0.80;;
21030;SDS011;61072;47.808;7.636;2023-01-08T07:45:27;0.93;;;0.50;;
21030;SDS011;61072;47.808;7.636;2023-01-08T07:47:57;1.52;;;0.68;;
21030;SDS011;61072;47.808;7.636;2023-01-08T07:50:25;1.10;;;0.88;;
21030;SDS011;61072;47.808;7.636;2023-01-08T07:52:55;2.00;;;1.42;;
21030;SDS011;61072;47.808;7.636;2023-01-08T07:55:26;2.55;;;0.95;;
21030;SDS011;61072;47.808;7.636;2023-01-08T07:57:53;0.60;;;0.57;;
21030;SDS011;61072;47.808;7.636;2023-01-08T08:00:20;1.88;;;0.70;;
21030;SDS011;61072;47.808;7.636;2023-01-08T08:02:47;1.15;;;0.65;;
21030;SDS011;61072;47.808;7.636;2023-01-08T08:05:14;1.05;;;0.85;;
21030;SDS011;61072;47.808;7.636;2023-01-08T08:07:43;2.00;;;0.80;;
21030;SDS011;61072;47.808;7.636;2023-01-08T08:10:09;1.77;;;0.95;;
21030;SDS011;61072;47.808;7.636;2023-01-08T08:12:39;0.75;;;0.75;;
21030;SDS011;61072;47.808;7.636;2023-01-08T08:15:06;3.15;;;0.95;;
21030;SDS011;61072;47.808;7.636;2023-01-08T08:17:33;0.80;;;0.70;;
21030;SDS011;61072;47.808;7.636;2023-01-08T08:20:00;2.08;;;0.90;;
21030;SDS011;61072;47.808;7.636;2023-01-08T08:22:27;2.25;;;0.60;;
21030;SDS011;61072;47.808;7.636;2023-01-08T08:24:53;1.73;;;0.98;;
21030;SDS011;61072;47.808;7.636;2023-01-08T08:27:20;1.70;;;0.90;;
21030;SDS011;61072;47.808;7.636;2023-01-08T08:29:48;0.85;;;0.80;;
21030;SDS011;61072;47.808;7.636;2023-01-08T08:32:15;0.80;;;0.80;;
21030;SDS011;61072;47.808;7.636;2023-01-08T08:34:42;1.00;;;0.80;;
21030;SDS011;61072;47.808;7.636;2023-01-08T08:37:08;1.98;;;1.10;;
21030;SDS011;61072;47.808;7.636;2023-01-08T08:39:35;0.93;;;0.70;;
21030;SDS011;61072;47.808;7.636;2023-01-08T08:42:02;3.20;;;0.90;;
21030;SDS011;61072;47.808;7.636;2023-01-08T08:44:28;2.25;;;0.60;;
21030;SDS011;61072;47.808;7.636;2023-01-08T08:46:55;1.00;;;0.90;;
21030;SDS011;61072;47.808;7.636;2023-01-08T08:49:22;1.85;;;0.63;;
21030;SDS011;61072;47.808;7.636;2023-01-08T08:51:48;1.50;;;0.70;;
21030;SDS011;61072;47.808;7.636;2023-01-08T08:54:15;3.30;;;0.60;;
21030;SDS011;61072;47.808;7.636;2023-01-08T08:56:42;0.73;;;0.60;;
21030;SDS011;61072;47.808;7.636;2023-01-08T08:59:09;0.88;;;0.70;;
21030;SDS011;61072;47.808;7.636;2023-01-08T09:01:38;2.10;;;0.73;;
21030;SDS011;61072;47.808;7.636;2023-01-08T09:04:05;0.68;;;0.68;;
21030;SDS011;61072;47.808;7.636;2023-01-08T09:06:31;1.02;;;0.80;;
21030;SDS011;61072;47.808;7.636;2023-01-08T09:08:58;1.20;;;0.95;;
21030;SDS011;61072;47.808;7.636;2023-01-08T09:11:25;1.00;;;0.70;;
21030;SDS011;61072;47.808;7.636;2023-01-08T09:13:52;2.15;;;0.90;;
21030;SDS011;61072;47.808;7.636;2023-01-08T09:16:18;1.88;;;0.60;;
21030;SDS011;61072;47.808;7.636;2023-01-08T09:18:45;4.20;;;1.60;;
21030;SDS011;61072;47.808;7.636;2023-01-08T09:21:12;0.95;;;0.70;;
21030;SDS011;61072;47.808;7.636;2023-01-08T09:23:38;3.42;;;1.58;;
21030;SDS011;61072;47.808;7.636;2023-01-08T09:26:05;1.08;;;0.77;;
21030;SDS011;61072;47.808;7.636;2023-01-08T09:28:32;0.52;;;0.52;;
21030;SDS011;61072;47.808;7.636;2023-01-08T09:31:02;2.42;;;0.98;;
21030;SDS011;61072;47.808;7.636;2023-01-08T09:33:29;0.55;;;0.55;;
21030;SDS011;61072;47.808;7.636;2023-01-08T09:35:56;0.65;;;0.63;;
21030;SDS011;61072;47.808;7.636;2023-01-08T09:38:23;0.77;;;0.70;;
21030;SDS011;61072;47.808;7.636;2023-01-08T09:40:57;0.75;;;0.73;;
21030;SDS011;61072;47.808;7.636;2023-01-08T09:43:28;0.73;;;0.70;;
21030;SDS011;61072;47.808;7.636;2023-01-08T09:45:58;0.55;;;0.50;;
21030;SDS011;61072;47.808;7.636;2023-01-08T09:48:27;1.75;;;0.90;;
21030;SDS011;61072;47.808;7.636;2023-01-08T09:50:56;0.88;;;0.88;;
21030;SDS011;61072;47.808;7.636;2023-01-08T09:53:23;0.82;;;0.82;;
21030;SDS011;61072;47.808;7.636;2023-01-08T09:55:54;0.40;;;0.40;;
21030;SDS011;61072;47.808;7.636;2023-01-08T09:58:39;0.40;;;0.40;;
21030;SDS011;61072;47.808;7.636;2023-01-08T10:01:16;0.82;;;0.63;;
21030;SDS011;61072;47.808;7.636;2023-01-08T10:06:31;0.90;;;0.55;;
21030;SDS011;61072;47.808;7.636;2023-01-08T10:08:58;1.30;;;0.63;;
21030;SDS011;61072;47.808;7.636;2023-01-08T10:11:25;0.50;;;0.50;;
21030;SDS011;61072;47.808;7.636;2023-01-08T10:13:59;0.47;;;0.47;;
21030;SDS011;61072;47.808;7.636;2023-01-08T10:16:30;2.80;;;0.52;;
21030;SDS011;61072;47.808;7.636;2023-01-08T10:19:02;0.73;;;0.50;;
21030;SDS011;61072;47.808;7.636;2023-01-08T10:21:30;1.65;;;0.57;;
21030;SDS011;61072;47.808;7.636;2023-01-08T10:24:01;0.50;;;0.50;;
21030;SDS011;61072;47.808;7.636;2023-01-08T10:26:30;0.93;;;0.60;;
21030;SDS011;61072;47.808;7.636;2023-01-08T10:29:32;0.55;;;0.55;;
21030;SDS011;61072;47.808;7.636;2023-01-08T10:31:52;0.75;;;0.50;;
21030;SDS011;61072;47.808;7.636;2023-01-08T10:34:29;2.05;;;0.77;;
21030;SDS011;61072;47.808;7.636;2023-01-08T10:36:58;0.43;;;0.43;;
21030;SDS011;61072;47.808;7.636;2023-01-08T10:39:26;2.55;;;1.17;;
21030;SDS011;61072;47.808;7.636;2023-01-08T10:41:55;4.45;;;2.70;;
21030;SDS011;61072;47.808;7.636;2023-01-08T10:44:27;2.33;;;1.05;;
21030;SDS011;61072;47.808;7.636;2023-01-08T10:46:57;2.33;;;1.20;;
21030;SDS011;61072;47.808;7.636;2023-01-08T10:49:26;2.45;;;1.27;;
21030;SDS011;61072;47.808;7.636;2023-01-08T10:52:00;7.65;;;3.13;;
21030;SDS011;61072;47.808;7.636;2023-01-08T10:54:34;1.00;;;0.70;;
21030;SDS011;61072;47.808;7.636;2023-01-08T10:57:16;0.60;;;0.50;;
21030;SDS011;61072;47.808;7.636;2023-01-08T10:59:49;1.42;;;0.50;;
21030;SDS011;61072;47.808;7.636;2023-01-08T11:05:04;0.60;;;0.60;;
21030;SDS011;61072;47.808;7.636;2023-01-08T11:07:33;0.60;;;0.60;;
21030;SDS011;61072;47.808;7.636;2023-01-08T11:10:00;1.40;;;0.70;;
21030;SDS011;61072;47.808;7.636;2023-01-08T11:12:31;0.82;;;0.70;;
21030;SDS011;61072;47.808;7.636;2023-01-08T11:14:59;0.60;;;0.60;;
21030;SDS011;61072;47.808;7.636;2023-01-08T11:17:26;0.60;;;0.60;;
21030;SDS011;61072;47.808;7.636;2023-01-08T11:19:53;2.63;;;0.60;;
21030;SDS011;61072;47.808;7.636;2023-01-08T11:22:24;1.00;;;0.85;;
21030;SDS011;61072;47.808;7.636;2023-01-08T11:24:52;1.10;;;1.00;;
21030;SDS011;61072;47.808;7.636;2023-01-08T11:29:57;0.65;;;0.65;;
21030;SDS011;61072;47.808;7.636;2023-01-08T11:35:15;0.40;;;0.40;;
21030;SDS011;61072;47.808;7.636;2023-01-08T11:37:49;0.30;;;0.30;;
21030;SDS011;61072;47.808;7.636;2023-01-08T11:40:17;1.08;;;0.60;;
21030;SDS011;61072;47.808;7.636;2023-01-08T12:02:19;1.83;;;1.00;;
21030;SDS011;61072;47.808;7.636;2023-01-08T12:16:00;4.30;;;2.97;;
21030;SDS011;61072;47.808;7.636;2023-01-08T12:27:33;0.77;;;0.77;;
21030;SDS011;61072;47.808;7.636;2023-01-08T12:30:30;3.45;;;1.00;;
21030;SDS011;61072;47.808;7.636;2023-01-08T12:33:18;1.15;;;0.80;;
21030;SDS011;61072;47.808;7.636;2023-01-08T12:35:47;0.68;;;0.68;;
21030;SDS011;61072;47.808;7.636;2023-01-08T12:38:23;1.73;;;1.02;;
21030;SDS011;61072;47.808;7.636;2023-01-08T12:40:58;2.75;;;0.75;;
21030;SDS011;61072;47.808;7.636;2023-01-08T12:43:42;1.40;;;0.68;;
21030;SDS011;61072;47.808;7.636;2023-01-08T12:46:22;1.30;;;0.77;;
21030;SDS011;61072;47.808;7.636;2023-01-08T12:48:52;1.52;;;0.90;;
21030;SDS011;61072;47.808;7.636;2023-01-08T12:59:29;2.13;;;1.30;;
21030;SDS011;61072;47.808;7.636;2023-01-08T13:04:58;1.13;;;1.02;;
21030;SDS011;61072;47.808;7.636;2023-01-08T13:07:59;0.63;;;0.50;;
21030;SDS011;61072;47.808;7.636;2023-01-08T13:10:33;1.27;;;0.90;;
21030;SDS011;61072;47.808;7.636;2023-01-08T13:13:30;2.15;;;1.00;;
21030;SDS011;61072;47.808;7.636;2023-01-08T13:18:52;1.40;;;1.10;;
21030;SDS011;61072;47.808;7.636;2023-01-08T13:24:05;1.70;;;1.05;;
21030;SDS011;61072;47.808;7.636;2023-01-08T13:26:33;3.20;;;1.52;;
21030;SDS011;61072;47.808;7.636;2023-01-08T13:31:49;3.45;;;1.40;;
21030;SDS011;61072;47.808;7.636;2023-01-08T13:34:18;1.83;;;1.60;;
21030;SDS011;61072;47.808;7.636;2023-01-08T13:37:00;2.17;;;1.70;;
21030;SDS011;61072;47.808;7.636;2023-01-08T13:39:32;10.18;;;7.05;;
21030;SDS011;61072;47.808;7.636;2023-01-08T13:44:56;4.43;;;3.45;;
21030;SDS011;61072;47.808;7.636;2023-01-08T13:50:13;15.98;;;10.60;;
21030;SDS011;61072;47.808;7.636;2023-01-08T13:55:28;29.85;;;25.65;;
21030;SDS011;61072;47.808;7.636;2023-01-08T13:58:08;13.52;;;12.02;;
21030;SDS011;61072;47.808;7.636;2023-01-08T14:05:51;10.50;;;8.90;;
21030;SDS011;61072;47.808;7.636;2023-01-08T14:08:29;12.43;;;10.38;;
21030;SDS011;61072;47.808;7.636;2023-01-08T14:10:56;17.35;;;14.57;;
21030;SDS011;61072;47.808;7.636;2023-01-08T14:13:25;13.57;;;10.75;;
21030;SDS011;61072;47.808;7.636;2023-01-08T14:15:59;11.02;;;8.43;;
21030;SDS011;61072;47.808;7.636;2023-01-08T14:18:29;17.90;;;10.27;;
21030;SDS011;61072;47.808;7.636;2023-01-08T14:20:56;17.50;;;11.32;;
21030;SDS011;61072;47.808;7.636;2023-01-08T14:23:26;19.35;;;12.02;;
21030;SDS011;61072;47.808;7.636;2023-01-08T14:26:00;16.40;;;11.52;;
21030;SDS011;61072;47.808;7.636;2023-01-08T14:28:30;16.30;;;10.68;;
21030;SDS011;61072;47.808;7.636;2023-01-08T14:30:57;8.95;;;7.07;;
21030;SDS011;61072;47.808;7.636;2023-01-08T14:33:33;8.10;;;4.85;;
21030;SDS011;61072;47.808;7.636;2023-01-08T14:36:02;9.73;;;5.65;;
21030;SDS011;61072;47.808;7.636;2023-01-08T14:40:59;10.32;;;5.25;;
21030;SDS011;61072;47.808;7.636;2023-01-08T14:43:33;6.03;;;3.50;;
21030;SDS011;61072;47.808;7.636;2023-01-08T14:46:08;6.45;;;3.05;;
21030;SDS011;61072;47.808;7.636;2023-01-08T14:48:47;3.65;;;2.88;;
21030;SDS011;61072;47.808;7.636;2023-01-08T14:51:19;3.95;;;2.90;;
21030;SDS011;61072;47.808;7.636;2023-01-08T14:53:49;4.03;;;2.70;;
21030;SDS011;61072;47.808;7.636;2023-01-08T14:58:47;4.13;;;3.13;;
21030;SDS011;61072;47.808;7.636;2023-01-08T15:03:43;17.27;;;7.63;;
21030;SDS011;61072;47.808;7.636;2023-01-08T15:06:11;14.88;;;5.82;;
21030;SDS011;61072;47.808;7.636;2023-01-08T15:08:48;5.85;;;2.60;;
21030;SDS011;61072;47.808;7.636;2023-01-08T15:13:45;6.65;;;2.20;;
21030;SDS011;61072;47.808;7.636;2023-01-08T15:18:43;9.63;;;4.30;;
21030;SDS011;61072;47.808;7.636;2023-01-08T15:21:19;7.53;;;4.43;;
21030;SDS011;61072;47.808;7.636;2023-01-08T15:23:47;6.28;;;4.82;;
21030;SDS011;61072;47.808;7.636;2023-01-08T15:26:17;10.02;;;6.57;;
21030;SDS011;61072;47.808;7.636;2023-01-08T15:28:45;12.85;;;7.70;;
21030;SDS011;61072;47.808;7.636;2023-01-08T15:31:29;11.48;;;6.38;;
21030;SDS011;61072;47.808;7.636;2023-01-08T15:33:58;13.55;;;6.82;;
21030;SDS011;61072;47.808;7.636;2023-01-08T15:36:25;11.23;;;6.68;;
21030;SDS011;61072;47.808;7.636;2023-01-08T15:38:52;10.10;;;6.13;;
21030;SDS011;61072;47.808;7.636;2023-01-08T15:41:19;10.77;;;6.18;;
21030;SDS011;61072;47.808;7.636;2023-01-08T15:44:06;6.88;;;4.57;;
21030;SDS011;61072;47.808;7.636;2023-01-08T15:46:37;7.40;;;5.10;;
21030;SDS011;61072;47.808;7.636;2023-01-08T15:49:04;16.17;;;8.82;;
21030;SDS011;61072;47.808;7.636;2023-01-08T15:51:31;22.73;;;13.10;;
21030;SDS011;61072;47.808;7.636;2023-01-08T15:54:00;25.50;;;15.15;;
21030;SDS011;61072;47.808;7.636;2023-01-08T15:56:27;20.08;;;12.82;;
21030;SDS011;61072;47.808;7.636;2023-01-08T15:58:54;18.63;;;12.40;;
21030;SDS011;61072;47.808;7.636;2023-01-08T16:01:20;15.43;;;11.38;;
21030;SDS011;61072;47.808;7.636;2023-01-08T16:03:47;14.23;;;9.13;;
21030;SDS011;61072;47.808;7.636;2023-01-08T16:06:14;10.95;;;7.38;;
21030;SDS011;61072;47.808;7.636;2023-01-08T16:08:41;11.13;;;7.22;;
21030;SDS011;61072;47.808;7.636;2023-01-08T16:11:11;12.52;;;8.13;;
21030;SDS011;61072;47.808;7.636;2023-01-08T16:13:38;15.45;;;9.48;;
21030;SDS011;61072;47.808;7.636;2023-01-08T16:16:09;14.85;;;10.52;;
21030;SDS011;61072;47.808;7.636;2023-01-08T16:18:40;13.40;;;8.30;;
21030;SDS011;61072;47.808;7.636;2023-01-08T16:21:08;8.18;;;5.85;;
21030;SDS011;61072;47.808;7.636;2023-01-08T16:23:36;11.48;;;4.93;;
21030;SDS011;61072;47.808;7.636;2023-01-08T16:26:04;8.85;;;5.97;;
21030;SDS011;61072;47.808;7.636;2023-01-08T16:28:35;13.52;;;7.50;;
21030;SDS011;61072;47.808;7.636;2023-01-08T16:31:02;8.57;;;6.03;;
21030;SDS011;61072;47.808;7.636;2023-01-08T16:33:30;11.38;;;6.90;;
21030;SDS011;61072;47.808;7.636;2023-01-08T16:35:57;13.27;;;8.60;;
21030;SDS011;61072;47.808;7.636;2023-01-08T16:38:24;8.77;;;6.28;;
21030;SDS011;61072;47.808;7.636;2023-01-08T16:40:51;8.40;;;4.95;;
21030;SDS011;61072;47.808;7.636;2023-01-08T16:43:19;4.75;;;3.88;;
21030;SDS011;61072;47.808;7.636;2023-01-08T16:45:46;10.50;;;7.13;;
21030;SDS011;61072;47.808;7.636;2023-01-08T16:48:14;10.43;;;6.38;;
21030;SDS011;61072;47.808;7.636;2023-01-08T16:50:41;11.40;;;7.90;;
21030;SDS011;61072;47.808;7.636;2023-01-08T16:53:08;14.30;;;9.18;;